Beighton, United Kingdom
Current Conditions -  °F | °C
As of 9:50 AM on Friday 31 Oct 2014 (Local Time) from EGCN Reporting Station
Scattered Clouds Scattered Clouds  
Wind Chill: 63°   Ceiling: Unl
Heat Index: 63°   Visibility: 4mi
Dew Point: 59°   Wind: 9mph
Humidity: 88%   Direction: 160°SSE
Pressure: 29.97"   Gusts: NA
Location:  53.33°N, 1.33°W
Report Text: EGCN 310950Z 16008KT 7000 SCT014 17/15 Q1015
Loading
Personal Weather Stations






























Interactive Weather Map
Tropical Storm Tracking
New forecast layout! Learn more

10-Day Weather Forecast

Advertisements
Track Severe Weather on mobile